createdAt,value
2018-08-31T00:00:52.139Z,19.13
2018-08-31T00:02:23.712Z,19.13
2018-08-31T00:03:55.290Z,19.14
2018-08-31T00:05:26.959Z,19.07
2018-08-31T00:06:58.432Z,18.82
2018-08-31T00:08:30.005Z,18.90
2018-08-31T00:10:01.578Z,18.85
2018-08-31T00:11:33.251Z,18.91
2018-08-31T00:13:04.723Z,19.94
2018-08-31T00:14:36.297Z,20.05
2018-08-31T00:16:07.869Z,20.08
2018-08-31T00:17:39.642Z,19.87
2018-08-31T00:19:11.015Z,19.50
2018-08-31T00:20:42.588Z,19.55
2018-08-31T00:22:14.160Z,19.71
2018-08-31T00:23:45.834Z,19.65
2018-08-31T00:25:17.308Z,19.41
2018-08-31T00:26:48.880Z,19.39
2018-08-31T00:28:20.453Z,19.25
2018-08-31T00:29:52.126Z,19.04
2018-08-31T00:31:23.598Z,19.10
2018-08-31T00:32:55.171Z,19.46
2018-08-31T00:34:26.746Z,19.56
2018-08-31T00:35:58.520Z,19.59
2018-08-31T00:37:29.890Z,19.33
2018-08-31T00:39:01.464Z,19.25
2018-08-31T00:40:33.051Z,18.87
2018-08-31T00:42:04.708Z,19.23
2018-08-31T00:43:36.182Z,19.55
2018-08-31T00:45:07.758Z,19.73
2018-08-31T00:46:42.439Z,19.78
2018-08-31T00:48:11.059Z,19.80
2018-08-31T00:49:42.472Z,19.65
2018-08-31T00:51:14.046Z,19.55
2018-08-31T00:52:45.619Z,19.46
2018-08-31T00:54:17.442Z,19.21
2018-08-31T00:55:48.764Z,19.32
2018-08-31T00:57:20.337Z,18.98
2018-08-31T00:58:51.914Z,18.67
2018-08-31T01:00:23.586Z,18.80
2018-08-31T01:01:55.063Z,19.33
2018-08-31T01:03:26.649Z,19.25
2018-08-31T01:04:58.210Z,18.90
2018-08-31T01:06:29.876Z,18.57
2018-08-31T01:08:01.347Z,18.39
2018-08-31T01:09:32.920Z,18.27
2018-08-31T01:11:04.495Z,18.41
2018-08-31T01:12:36.316Z,18.37
2018-08-31T01:14:07.639Z,18.30
2018-08-31T01:15:39.217Z,18.42
2018-08-31T01:17:10.784Z,18.57
2018-08-31T01:18:42.457Z,18.72
2018-08-31T01:20:13.938Z,18.75
2018-08-31T01:21:45.524Z,18.82
2018-08-31T01:23:17.074Z,18.84
2018-08-31T01:24:48.952Z,18.70
2018-08-31T01:26:20.220Z,18.66
2018-08-31T01:27:51.791Z,18.57
2018-08-31T01:29:23.364Z,18.48
2018-08-31T01:30:55.136Z,18.48
2018-08-31T01:32:26.540Z,18.87
2018-08-31T01:33:58.082Z,18.87
2018-08-31T01:35:29.656Z,18.90
2018-08-31T01:37:01.327Z,18.67
2018-08-31T01:38:32.802Z,18.54
2018-08-31T01:40:04.382Z,18.75
2018-08-31T01:41:35.946Z,19.31
2018-08-31T01:43:07.617Z,19.84
2018-08-31T01:44:39.091Z,19.84
2018-08-31T01:46:10.665Z,19.99
2018-08-31T01:49:14.010Z,20.06
2018-08-31T01:50:45.379Z,19.92
2018-08-31T01:52:16.967Z,19.80
2018-08-31T01:53:48.526Z,19.58
2018-08-31T01:55:20.430Z,19.48
2018-08-31T01:56:51.672Z,19.51
2018-08-31T01:58:23.250Z,19.58
2018-08-31T01:59:55.359Z,19.32
2018-08-31T02:01:26.542Z,19.07
2018-08-31T02:02:57.970Z,18.88
2018-08-31T02:06:01.124Z,18.76
2018-08-31T02:07:32.830Z,18.70
2018-08-31T02:09:04.253Z,18.62
2018-08-31T02:10:35.825Z,18.55
2018-08-31T02:12:07.397Z,18.57
2018-08-31T02:13:39.070Z,18.58
2018-08-31T02:15:10.544Z,18.62
2018-08-31T02:16:42.117Z,18.52
2018-08-31T02:18:13.687Z,18.48
2018-08-31T02:19:45.361Z,18.60
2018-08-31T02:21:16.833Z,18.50
2018-08-31T02:22:48.404Z,18.60
2018-08-31T02:24:19.978Z,18.48
2018-08-31T02:25:51.951Z,18.10
2018-08-31T02:27:23.122Z,17.89
2018-08-31T02:28:54.696Z,17.79
2018-08-31T02:30:26.272Z,17.64
2018-08-31T02:31:57.845Z,17.58
2018-08-31T02:33:29.413Z,17.72
2018-08-31T02:35:00.986Z,17.79
2018-08-31T02:36:32.556Z,17.84
2018-08-31T02:38:04.128Z,17.90
2018-08-31T02:39:35.700Z,17.99
2018-08-31T02:41:07.272Z,17.93
2018-08-31T02:42:38.846Z,17.78
2018-08-31T02:44:10.669Z,17.84
2018-08-31T02:45:41.990Z,17.77
2018-08-31T02:47:13.562Z,17.84
2018-08-31T02:48:45.132Z,17.62
2018-08-31T02:50:17.005Z,17.66
2018-08-31T02:51:48.277Z,17.55
2018-08-31T02:53:19.848Z,17.62
2018-08-31T02:54:51.421Z,17.55
2018-08-31T02:56:23.894Z,17.56
2018-08-31T02:57:54.564Z,17.52
2018-08-31T02:59:26.150Z,17.36
2018-08-31T03:00:57.709Z,17.18
2018-08-31T03:02:29.530Z,17.00
2018-08-31T03:04:00.852Z,16.97
2018-08-31T03:05:32.424Z,16.93
2018-08-31T03:07:03.995Z,16.86
2018-08-31T03:08:35.667Z,16.86
2018-08-31T03:10:07.145Z,16.85
2018-08-31T03:11:38.771Z,16.79
2018-08-31T03:13:10.283Z,16.82
2018-08-31T03:14:41.954Z,16.83
2018-08-31T03:16:13.425Z,16.94
2018-08-31T03:17:44.997Z,16.97
2018-08-31T03:19:16.568Z,16.94
2018-08-31T03:20:48.540Z,16.89
2018-08-31T03:22:19.711Z,16.98
2018-08-31T03:23:51.283Z,17.04
2018-08-31T03:25:22.854Z,17.04
2018-08-31T03:26:54.725Z,16.94
2018-08-31T03:28:25.997Z,16.89
2018-08-31T03:29:57.568Z,16.89
2018-08-31T03:31:29.140Z,16.88
2018-08-31T03:33:01.959Z,16.86
2018-08-31T03:34:32.832Z,16.97
2018-08-31T03:36:04.395Z,17.01
2018-08-31T03:37:35.967Z,17.06
2018-08-31T03:39:08.144Z,17.06
2018-08-31T03:40:38.571Z,17.18
2018-08-31T03:42:10.141Z,17.19
2018-08-31T03:43:41.710Z,17.37
2018-08-31T03:45:13.381Z,17.55
2018-08-31T03:46:44.856Z,17.72
2018-08-31T03:48:16.425Z,17.75
2018-08-31T03:49:47.996Z,17.81
2018-08-31T03:51:19.868Z,17.74
2018-08-31T03:52:51.140Z,17.62
2018-08-31T03:54:22.711Z,17.58
2018-08-31T03:55:54.282Z,17.31
2018-08-31T03:57:26.253Z,17.19
2018-08-31T03:58:57.424Z,17.11
2018-08-31T04:00:28.998Z,16.93
2018-08-31T04:02:00.700Z,16.83
2018-08-31T04:03:32.134Z,16.79
2018-08-31T04:05:03.707Z,16.76
2018-08-31T04:06:35.278Z,16.58
2018-08-31T04:08:06.851Z,16.56
2018-08-31T04:09:38.721Z,16.63
2018-08-31T04:11:10.292Z,16.50
2018-08-31T04:12:41.562Z,16.56
2018-08-31T04:14:13.134Z,16.48
2018-08-31T04:15:44.955Z,16.50
2018-08-31T04:17:16.276Z,16.46
2018-08-31T04:18:47.847Z,16.46
2018-08-31T04:20:19.421Z,16.49
2018-08-31T04:21:51.295Z,16.66
2018-08-31T04:23:22.562Z,16.53
2018-08-31T04:24:54.140Z,16.63
2018-08-31T04:26:25.703Z,16.88
2018-08-31T04:27:57.575Z,17.07
2018-08-31T04:29:28.847Z,17.15
2018-08-31T04:31:01.156Z,17.63
2018-08-31T04:32:31.989Z,17.71
2018-08-31T04:34:03.725Z,17.48
2018-08-31T04:35:35.131Z,17.15
2018-08-31T04:37:06.703Z,17.06
2018-08-31T04:38:38.272Z,17.15
2018-08-31T04:40:09.846Z,17.30
2018-08-31T04:41:41.617Z,17.34
2018-08-31T04:43:12.986Z,17.21
2018-08-31T04:44:44.557Z,17.15
2018-08-31T04:46:16.332Z,16.93
2018-08-31T04:47:47.701Z,16.76
2018-08-31T04:49:19.271Z,16.57
2018-08-31T04:50:50.844Z,16.60
2018-08-31T04:52:22.513Z,16.81
2018-08-31T04:53:53.984Z,17.08
2018-08-31T04:55:25.557Z,17.33
2018-08-31T04:56:57.177Z,17.22
2018-08-31T04:58:28.698Z,17.19
2018-08-31T05:00:00.269Z,17.12
2018-08-31T05:01:31.840Z,17.58
2018-08-31T05:03:03.411Z,17.54
2018-08-31T05:04:34.982Z,17.52
2018-08-31T05:06:06.553Z,17.33
2018-08-31T05:07:38.125Z,17.55
2018-08-31T05:09:09.696Z,17.97
2018-08-31T05:10:41.518Z,17.92
2018-08-31T05:12:12.838Z,17.55
2018-08-31T05:13:44.410Z,17.40
2018-08-31T05:15:15.980Z,17.44
2018-08-31T05:16:47.652Z,17.63
2018-08-31T05:18:19.126Z,17.59
2018-08-31T05:19:50.694Z,17.46
2018-08-31T05:21:22.265Z,17.28
2018-08-31T05:22:53.910Z,17.26
2018-08-31T05:24:25.407Z,17.28
2018-08-31T05:25:56.979Z,17.31
2018-08-31T05:27:28.550Z,17.66
2018-08-31T05:29:00.522Z,18.02
2018-08-31T05:30:31.692Z,18.26
2018-08-31T05:32:03.263Z,18.30
2018-08-31T05:33:34.835Z,18.18
2018-08-31T05:35:06.406Z,18.15
2018-08-31T05:36:37.977Z,18.51
2018-08-31T05:38:09.548Z,18.47
2018-08-31T05:39:41.424Z,18.45
2018-08-31T05:41:12.791Z,18.51
2018-08-31T05:42:44.262Z,18.57
2018-08-31T05:44:15.833Z,19.13
2018-08-31T05:45:47.404Z,19.32
2018-08-31T05:47:19.176Z,19.13
2018-08-31T05:50:22.117Z,19.10
2018-08-31T05:51:53.689Z,19.13
2018-08-31T05:53:25.584Z,19.04
2018-08-31T05:54:56.831Z,18.82
2018-08-31T05:56:28.403Z,18.98
2018-08-31T05:57:59.974Z,19.04
2018-08-31T05:59:31.548Z,18.94
2018-08-31T06:01:03.117Z,19.00
2018-08-31T06:02:34.688Z,18.94
2018-08-31T06:04:06.564Z,18.91
2018-08-31T06:05:37.931Z,18.65
2018-08-31T06:07:09.404Z,18.54
2018-08-31T06:08:40.974Z,18.51
2018-08-31T06:10:12.545Z,18.48
2018-08-31T06:11:44.175Z,18.32
2018-08-31T06:13:15.688Z,18.37
2018-08-31T06:14:47.343Z,18.36
2018-08-31T06:16:19.376Z,18.32
2018-08-31T06:17:50.510Z,18.50
2018-08-31T06:19:21.978Z,18.73
2018-08-31T06:20:53.606Z,18.81
2018-08-31T06:22:25.121Z,18.70
2018-08-31T06:23:57.096Z,18.75
2018-08-31T06:25:28.264Z,18.81
2018-08-31T06:26:59.894Z,18.65
2018-08-31T06:28:31.410Z,18.78
2018-08-31T06:30:03.280Z,18.76
2018-08-31T06:31:34.549Z,18.91
2018-08-31T06:33:06.121Z,18.87
2018-08-31T06:34:37.692Z,18.92
2018-08-31T06:36:09.364Z,18.82
2018-08-31T06:39:12.407Z,18.70
2018-08-31T06:40:44.109Z,18.72
2018-08-31T06:42:15.700Z,18.76
2018-08-31T06:43:47.122Z,18.80
2018-08-31T06:45:18.693Z,18.70
2018-08-31T06:46:50.264Z,18.65
2018-08-31T06:48:21.936Z,18.73
2018-08-31T06:49:53.407Z,18.66
2018-08-31T06:51:25.041Z,18.58
2018-08-31T06:52:56.549Z,18.58
2018-08-31T06:54:28.422Z,18.35
2018-08-31T06:55:59.692Z,18.42
2018-08-31T06:57:31.264Z,18.37
2018-08-31T06:59:02.837Z,18.35
2018-08-31T07:00:34.807Z,18.15
2018-08-31T07:02:05.979Z,18.17
2018-08-31T07:03:37.554Z,18.30
2018-08-31T07:05:09.122Z,18.41
2018-08-31T07:06:40.792Z,18.45
2018-08-31T07:08:12.268Z,18.51
2018-08-31T07:11:15.407Z,18.35
2018-08-31T07:12:46.978Z,18.41
2018-08-31T07:14:18.548Z,18.32
2018-08-31T07:15:50.126Z,18.47
2018-08-31T07:17:21.695Z,18.41
2018-08-31T07:18:53.463Z,18.52
2018-08-31T07:20:25.272Z,18.41
2018-08-31T07:21:56.406Z,18.55
2018-08-31T07:23:27.977Z,18.33
2018-08-31T07:24:59.549Z,18.36
2018-08-31T07:26:31.224Z,18.60
2018-08-31T07:28:02.694Z,18.58
2018-08-31T07:29:34.263Z,18.58
2018-08-31T07:31:05.832Z,18.42
2018-08-31T07:32:37.505Z,18.37
2018-08-31T07:34:08.977Z,18.26
2018-08-31T07:35:40.595Z,18.30
2018-08-31T07:37:12.217Z,18.21
2018-08-31T07:38:43.689Z,18.42
2018-08-31T07:40:15.260Z,18.29
2018-08-31T07:41:46.830Z,18.29
2018-08-31T07:43:18.402Z,18.20
2018-08-31T07:44:49.975Z,18.20
2018-08-31T07:46:21.544Z,18.15
2018-08-31T07:47:53.236Z,18.18
2018-08-31T07:49:24.786Z,18.20
2018-08-31T07:50:56.257Z,18.08
2018-08-31T07:52:27.829Z,18.08
2018-08-31T07:53:59.447Z,18.11
2018-08-31T07:55:31.121Z,18.02
2018-08-31T07:57:02.543Z,18.18
2018-08-31T07:58:34.113Z,18.20
2018-08-31T08:00:05.687Z,18.14
2018-08-31T08:01:37.256Z,18.00
2018-08-31T08:03:08.826Z,18.02
2018-08-31T08:04:40.947Z,18.02
2018-08-31T08:06:11.969Z,17.90
2018-08-31T08:07:43.540Z,17.86
2018-08-31T08:09:15.109Z,17.72
2018-08-31T08:10:46.713Z,17.87
2018-08-31T08:12:18.796Z,17.81
2018-08-31T08:13:50.088Z,17.81
2018-08-31T08:15:21.937Z,17.78
2018-08-31T08:16:52.979Z,17.82
2018-08-31T08:18:24.584Z,17.93
2018-08-31T08:19:56.207Z,18.00
2018-08-31T08:21:27.691Z,17.97
2018-08-31T08:22:59.249Z,17.89
2018-08-31T08:24:30.821Z,17.84
2018-08-31T08:26:02.867Z,17.77
2018-08-31T08:27:33.962Z,17.62
2018-08-31T08:29:06.076Z,17.58
2018-08-31T08:30:37.106Z,17.58
2018-08-31T08:32:09.078Z,17.78
2018-08-31T08:33:40.245Z,17.90
2018-08-31T08:35:11.819Z,17.95
2018-08-31T08:36:43.389Z,17.97
2018-08-31T08:38:14.959Z,17.66
2018-08-31T08:39:46.535Z,17.92
2018-08-31T08:41:18.099Z,17.81
2018-08-31T08:42:49.671Z,17.77
2018-08-31T08:44:21.240Z,17.81
2018-08-31T08:45:52.810Z,17.68
2018-08-31T08:47:24.385Z,17.82
2018-08-31T08:48:55.955Z,17.71
2018-08-31T08:50:27.673Z,17.64
2018-08-31T08:51:59.094Z,17.55
2018-08-31T08:53:30.664Z,17.46
2018-08-31T08:55:02.240Z,17.56
2018-08-31T08:58:05.410Z,17.79
2018-08-31T08:59:36.946Z,17.79
2018-08-31T09:01:08.517Z,17.77
2018-08-31T09:02:40.528Z,17.75
2018-08-31T09:04:11.657Z,17.84
2018-08-31T09:05:43.893Z,17.72
2018-08-31T09:07:14.798Z,17.75
2018-08-31T09:08:46.910Z,17.81
2018-08-31T09:10:18.582Z,17.72
2018-08-31T09:11:49.553Z,17.72
2018-08-31T09:13:21.565Z,17.72
2018-08-31T09:14:52.854Z,17.63
2018-08-31T09:16:24.221Z,17.58
2018-08-31T09:17:55.795Z,17.70
2018-08-31T09:19:27.363Z,17.66
2018-08-31T09:20:58.933Z,17.68
2018-08-31T09:22:30.605Z,17.55
2018-08-31T09:24:02.617Z,17.48
2018-08-31T09:27:05.217Z,17.36
2018-08-31T09:28:36.936Z,17.63
2018-08-31T09:30:08.356Z,17.77
2018-08-31T09:31:39.930Z,18.10
2018-08-31T09:33:11.498Z,18.17
2018-08-31T09:34:43.611Z,18.39
2018-08-31T09:36:14.640Z,18.62
2018-08-31T09:37:46.413Z,18.62
2018-08-31T09:39:17.784Z,18.70
2018-08-31T09:40:49.353Z,18.90
2018-08-31T09:43:52.548Z,19.02
2018-08-31T09:45:24.070Z,19.29
2018-08-31T09:48:27.365Z,19.62
2018-08-31T09:49:58.785Z,19.74
2018-08-31T09:51:30.359Z,19.80
2018-08-31T09:53:01.929Z,19.98
2018-08-31T09:54:33.804Z,20.08
2018-08-31T09:56:05.075Z,20.03
2018-08-31T09:57:36.648Z,19.88
2018-08-31T09:59:08.222Z,19.88
2018-08-31T10:00:39.795Z,20.03
2018-08-31T10:02:11.912Z,20.14
2018-08-31T10:03:42.943Z,20.20
2018-08-31T10:06:46.494Z,20.28
2018-08-31T10:08:17.867Z,20.10
2018-08-31T10:11:21.996Z,21.14
2018-08-31T10:12:52.591Z,21.04
2018-08-31T10:14:23.962Z,20.89
2018-08-31T10:17:27.114Z,20.72
2018-08-31T10:18:58.687Z,20.54
2018-08-31T10:20:30.701Z,20.50
2018-08-31T10:23:34.159Z,20.95
2018-08-31T10:26:36.715Z,21.56
2018-08-31T10:29:39.716Z,21.75
2018-08-31T10:31:11.291Z,22.05
2018-08-31T10:32:42.870Z,22.49
2018-08-31T10:35:46.021Z,22.17
2018-08-31T10:37:18.140Z,22.06
2018-08-31T10:38:49.477Z,21.47
2018-08-31T10:40:20.834Z,21.82
2018-08-31T10:41:52.532Z,22.25
2018-08-31T10:43:23.905Z,22.21
2018-08-31T10:44:55.672Z,22.12
2018-08-31T10:46:27.699Z,21.90
2018-08-31T10:47:59.448Z,21.91
2018-08-31T10:49:30.961Z,22.05
2018-08-31T10:51:02.692Z,22.35
2018-08-31T10:52:33.740Z,22.58
2018-08-31T10:54:05.482Z,22.73
2018-08-31T10:55:38.048Z,23.07
2018-08-31T10:57:08.740Z,22.07
2018-08-31T10:58:40.150Z,22.33
2018-08-31T11:03:15.264Z,22.72
2018-08-31T11:04:46.699Z,22.73
2018-08-31T11:09:21.590Z,22.94
2018-08-31T11:10:52.757Z,23.31
2018-08-31T11:12:24.917Z,23.53
2018-08-31T11:13:56.419Z,23.66
2018-08-31T11:15:27.624Z,24.13
2018-08-31T11:16:59.397Z,24.25
2018-08-31T11:18:30.851Z,23.75
2018-08-31T11:21:33.872Z,23.65
2018-08-31T11:23:05.252Z,23.48
2018-08-31T11:24:37.071Z,23.35
2018-08-31T11:26:08.109Z,23.50
2018-08-31T11:27:40.012Z,23.00
2018-08-31T11:29:11.269Z,23.20
2018-08-31T11:30:43.872Z,23.13
2018-08-31T11:32:14.488Z,23.19
2018-08-31T11:33:46.520Z,23.66
2018-08-31T11:35:17.741Z,23.55
2018-08-31T11:36:49.220Z,23.54
2018-08-31T11:38:21.086Z,24.09
2018-08-31T11:39:53.773Z,24.53
2018-08-31T11:41:25.469Z,25.13
2018-08-31T11:42:56.444Z,24.00
2018-08-31T11:44:27.710Z,24.37
2018-08-31T11:45:59.732Z,23.72
2018-08-31T11:47:30.434Z,24.08
2018-08-31T11:49:01.843Z,23.76
2018-08-31T11:50:33.900Z,24.02
2018-08-31T11:52:05.576Z,24.09
2018-08-31T11:53:37.207Z,24.78
2018-08-31T11:55:08.451Z,25.27
2018-08-31T11:56:40.025Z,25.39
2018-08-31T11:58:12.005Z,25.90
2018-08-31T11:59:44.047Z,25.92
2018-08-31T12:02:47.377Z,24.81
2018-08-31T12:04:18.532Z,24.60
2018-08-31T12:07:20.868Z,25.20
2018-08-31T12:08:53.457Z,24.83
2018-08-31T12:10:24.997Z,24.20
2018-08-31T12:11:55.831Z,24.09
2018-08-31T12:13:28.186Z,24.35
2018-08-31T12:14:58.819Z,25.05
2018-08-31T12:16:30.773Z,25.50
2018-08-31T12:18:02.762Z,26.25
2018-08-31T12:19:35.347Z,26.21
2018-08-31T12:21:08.022Z,26.17
2018-08-31T12:22:40.295Z,25.88
2018-08-31T12:24:09.275Z,25.45
2018-08-31T12:25:41.090Z,25.76
2018-08-31T12:27:12.801Z,25.98
2018-08-31T12:28:43.419Z,26.44
2018-08-31T12:30:14.838Z,25.62
2018-08-31T12:31:46.371Z,25.75
2018-08-31T12:33:17.711Z,25.94
2018-08-31T12:34:50.470Z,26.06
2018-08-31T12:36:22.779Z,26.39
2018-08-31T12:37:54.536Z,26.58
2018-08-31T12:39:24.799Z,26.73
2018-08-31T12:40:56.380Z,26.62
2018-08-31T12:42:27.860Z,26.88
2018-08-31T12:43:59.701Z,26.37
2018-08-31T12:45:31.554Z,26.13
2018-08-31T12:47:03.512Z,26.60
2018-08-31T12:48:34.751Z,27.00
2018-08-31T12:50:05.785Z,27.25
2018-08-31T12:51:37.102Z,27.07
2018-08-31T12:53:09.817Z,26.92
2018-08-31T12:54:40.848Z,27.62
2018-08-31T12:56:12.847Z,27.46
2018-08-31T12:57:43.657Z,27.19
2018-08-31T12:59:16.103Z,26.80
2018-08-31T13:00:47.025Z,26.92
2018-08-31T13:02:17.978Z,27.28
2018-08-31T13:03:49.778Z,27.77
2018-08-31T13:05:21.679Z,27.97
2018-08-31T13:06:53.345Z,27.25
2018-08-31T13:08:24.300Z,26.75
2018-08-31T13:09:56.132Z,26.77
2018-08-31T13:11:28.256Z,26.95
2018-08-31T13:12:58.871Z,27.60
2018-08-31T13:14:31.038Z,27.78
2018-08-31T13:16:02.580Z,27.96
2018-08-31T13:20:37.653Z,27.66
2018-08-31T13:22:08.659Z,27.92
2018-08-31T13:23:40.503Z,27.87
2018-08-31T13:25:11.663Z,28.04
2018-08-31T13:26:43.943Z,28.21
2018-08-31T13:28:15.015Z,28.24
2018-08-31T13:29:46.427Z,27.92
2018-08-31T13:31:18.238Z,28.34
2018-08-31T13:32:50.159Z,28.92
2018-08-31T13:34:21.616Z,28.46
2018-08-31T13:35:52.871Z,28.29
2018-08-31T13:37:24.902Z,28.64
2018-08-31T13:38:57.928Z,28.34
2018-08-31T13:40:28.456Z,28.14
2018-08-31T13:41:59.053Z,28.64
2018-08-31T13:43:30.722Z,28.55
2018-08-31T13:45:02.651Z,29.63
2018-08-31T13:46:34.345Z,29.86
2018-08-31T13:48:05.638Z,29.53
2018-08-31T13:49:37.219Z,29.51
2018-08-31T13:51:08.809Z,29.14
2018-08-31T13:52:40.633Z,28.73
2018-08-31T13:54:11.981Z,28.52
2018-08-31T13:55:43.575Z,29.05
2018-08-31T13:57:15.158Z,29.42
2018-08-31T13:58:46.435Z,29.58
2018-08-31T14:00:18.196Z,29.14
2018-08-31T14:01:49.863Z,30.07
2018-08-31T14:03:22.038Z,30.27
2018-08-31T14:04:52.843Z,29.28
2018-08-31T14:06:24.708Z,30.08
2018-08-31T14:07:56.536Z,29.86
2018-08-31T14:09:27.951Z,30.04
2018-08-31T14:10:59.991Z,30.79
2018-08-31T14:12:32.952Z,30.39
2018-08-31T14:14:02.674Z,30.32
2018-08-31T14:15:33.990Z,29.80
2018-08-31T14:17:05.722Z,28.85
2018-08-31T14:18:37.284Z,29.27
2018-08-31T14:20:10.959Z,29.39
2018-08-31T14:21:40.649Z,29.53
2018-08-31T14:23:12.615Z,29.95
2018-08-31T14:24:43.676Z,30.24
2018-08-31T14:26:15.260Z,30.04
2018-08-31T14:27:47.057Z,30.15
2018-08-31T14:29:18.136Z,29.43
2018-08-31T14:30:50.235Z,29.26
2018-08-31T14:32:22.976Z,29.71
2018-08-31T14:33:53.692Z,29.55
2018-08-31T14:35:24.857Z,29.85
2018-08-31T14:36:57.032Z,30.08
2018-08-31T14:38:28.162Z,29.82
2018-08-31T14:40:02.026Z,29.94
2018-08-31T14:41:31.694Z,30.22
2018-08-31T14:43:04.338Z,30.04
2018-08-31T14:44:34.822Z,29.64
2018-08-31T14:46:07.041Z,30.17
2018-08-31T14:47:38.663Z,30.67
2018-08-31T14:49:10.507Z,30.69
2018-08-31T14:50:42.386Z,30.32
2018-08-31T14:52:14.094Z,30.53
2018-08-31T14:53:45.969Z,30.55
2018-08-31T14:55:20.280Z,31.02
2018-08-31T14:56:48.133Z,30.77
2018-08-31T14:58:20.620Z,30.29
2018-08-31T14:59:53.265Z,30.13
2018-08-31T15:01:21.806Z,30.19
2018-08-31T15:02:53.828Z,30.46
2018-08-31T15:04:24.720Z,30.67
2018-08-31T15:05:56.306Z,31.13
2018-08-31T15:08:59.497Z,30.17
2018-08-31T15:10:31.423Z,31.02
2018-08-31T15:12:02.559Z,31.02
2018-08-31T15:13:34.992Z,31.35
2018-08-31T15:16:37.521Z,30.37
2018-08-31T15:18:09.006Z,30.62
2018-08-31T15:21:12.085Z,31.02
2018-08-31T15:22:43.773Z,31.20
2018-08-31T15:24:15.260Z,31.38
2018-08-31T15:25:47.149Z,31.80
2018-08-31T15:28:50.074Z,30.79
2018-08-31T15:30:21.946Z,30.89
2018-08-31T15:33:24.794Z,31.72
2018-08-31T15:34:56.626Z,31.41
2018-08-31T15:36:28.267Z,31.68
2018-08-31T15:39:31.343Z,31.85
2018-08-31T15:41:03.081Z,31.72
2018-08-31T15:42:34.937Z,31.53
2018-08-31T15:44:06.209Z,30.91
2018-08-31T15:45:37.503Z,31.06
2018-08-31T15:48:40.773Z,31.70
2018-08-31T15:50:12.280Z,32.65
2018-08-31T15:53:15.741Z,30.80
2018-08-31T15:54:47.918Z,31.13
2018-08-31T15:56:20.083Z,31.39
2018-08-31T15:57:50.508Z,31.23
2018-08-31T15:59:21.994Z,31.54
2018-08-31T16:00:53.733Z,31.85
2018-08-31T16:02:25.000Z,32.47
2018-08-31T16:03:56.861Z,32.14
2018-08-31T16:05:28.166Z,30.65
2018-08-31T16:08:31.572Z,31.39
2018-08-31T16:11:34.502Z,31.63
2018-08-31T16:13:06.647Z,32.22
2018-08-31T16:14:37.930Z,32.11
2018-08-31T16:16:09.269Z,31.96
2018-08-31T16:19:12.453Z,31.73
2018-08-31T16:20:44.655Z,32.10
2018-08-31T16:22:15.828Z,32.15
2018-08-31T16:23:47.214Z,31.72
2018-08-31T16:25:18.803Z,31.68
2018-08-31T16:26:51.035Z,31.53
2018-08-31T16:31:25.703Z,32.66
2018-08-31T16:34:28.988Z,32.85
2018-08-31T16:40:35.101Z,31.70
2018-08-31T16:43:37.871Z,30.19
2018-08-31T16:45:09.552Z,29.94
2018-08-31T16:46:41.219Z,31.28
2018-08-31T16:51:15.860Z,31.44
2018-08-31T16:52:47.900Z,30.75
2018-08-31T16:55:50.569Z,30.37
2018-08-31T16:57:22.154Z,30.19
2018-08-31T16:58:53.844Z,31.07
2018-08-31T17:00:25.328Z,30.98
2018-08-31T17:01:57.133Z,31.29
2018-08-31T17:03:28.500Z,31.84
2018-08-31T17:05:00.193Z,31.58
2018-08-31T17:08:03.263Z,31.69
2018-08-31T17:09:37.875Z,31.53
2018-08-31T17:11:06.728Z,31.56
2018-08-31T17:14:09.606Z,31.04
2018-08-31T17:15:41.392Z,31.36
2018-08-31T17:17:12.876Z,30.79
2018-08-31T17:18:44.362Z,31.09
2018-08-31T17:20:16.030Z,31.80
2018-08-31T17:21:47.838Z,32.23
2018-08-31T17:23:19.762Z,32.55
2018-08-31T17:24:50.942Z,32.33
2018-08-31T17:27:53.879Z,32.13
2018-08-31T17:29:25.933Z,32.15
2018-08-31T17:31:00.104Z,32.63
2018-08-31T17:32:28.639Z,32.67
2018-08-31T17:34:00.225Z,32.08
2018-08-31T17:35:31.913Z,32.08
2018-08-31T17:38:36.597Z,32.11
2018-08-31T17:40:06.611Z,31.36
2018-08-31T17:41:38.473Z,31.21
2018-08-31T17:43:10.695Z,31.65
2018-08-31T17:44:41.564Z,31.56
2018-08-31T17:46:13.147Z,31.54
2018-08-31T17:47:44.703Z,31.85
2018-08-31T17:49:16.394Z,31.75
2018-08-31T17:50:48.283Z,31.32
2018-08-31T17:52:19.266Z,31.01
2018-08-31T17:53:51.896Z,31.35
2018-08-31T17:56:54.017Z,32.07
2018-08-31T17:59:57.491Z,31.54
2018-08-31T18:01:28.979Z,31.17
2018-08-31T18:03:00.364Z,31.91
2018-08-31T18:06:03.780Z,32.26
2018-08-31T18:07:35.657Z,32.51
2018-08-31T18:09:06.705Z,31.72
2018-08-31T18:10:38.286Z,32.22
2018-08-31T18:12:09.972Z,32.59
2018-08-31T18:13:41.762Z,32.15
2018-08-31T18:15:13.249Z,31.75
2018-08-31T18:18:16.516Z,32.10
2018-08-31T18:19:47.798Z,31.92
2018-08-31T18:21:19.382Z,32.44
2018-08-31T18:25:54.435Z,33.15
2018-08-31T18:27:26.027Z,32.88
2018-08-31T18:28:57.309Z,32.87
2018-08-31T18:30:28.896Z,31.66
2018-08-31T18:32:00.580Z,31.20
2018-08-31T18:36:35.237Z,31.76
2018-08-31T18:38:06.921Z,31.91
2018-08-31T18:39:38.710Z,32.44
2018-08-31T18:41:09.988Z,31.50
2018-08-31T18:42:41.573Z,31.96
2018-08-31T18:44:13.407Z,32.21
2018-08-31T18:45:44.741Z,32.14
2018-08-31T18:47:16.328Z,32.89
2018-08-31T18:48:48.114Z,32.57
2018-08-31T18:50:19.596Z,32.51
2018-08-31T18:51:51.113Z,32.13
2018-08-31T18:53:22.872Z,31.93
2018-08-31T18:54:54.755Z,31.95
2018-08-31T18:56:25.933Z,31.99
2018-08-31T18:57:57.627Z,32.29
2018-08-31T18:59:29.006Z,32.32
2018-08-31T19:01:00.789Z,32.07
2018-08-31T19:02:32.324Z,32.11
2018-08-31T19:07:07.237Z,32.15
2018-08-31T19:08:38.606Z,31.89
2018-08-31T19:10:10.294Z,32.25
2018-08-31T19:11:41.877Z,32.06
2018-08-31T19:13:13.458Z,32.07
2018-08-31T19:14:44.940Z,31.91
2018-08-31T19:16:16.425Z,32.14
2018-08-31T19:17:48.006Z,32.35
2018-08-31T19:20:51.375Z,31.57
2018-08-31T19:22:22.758Z,31.85
2018-08-31T19:23:54.542Z,32.15
2018-08-31T19:25:25.923Z,31.95
2018-08-31T19:26:57.809Z,31.85
2018-08-31T19:31:32.292Z,31.81
2018-08-31T19:33:04.242Z,31.86
2018-08-31T19:34:35.422Z,31.43
2018-08-31T19:36:07.005Z,32.10
2018-08-31T19:37:38.586Z,32.33
2018-08-31T19:40:42.155Z,31.56
2018-08-31T19:42:13.335Z,31.72
2018-08-31T19:43:44.919Z,31.81
2018-08-31T19:45:16.501Z,31.14
2018-08-31T19:46:48.534Z,31.32
2018-08-31T19:48:19.868Z,31.46
2018-08-31T19:49:51.248Z,31.28
2018-08-31T19:51:22.829Z,31.23
2018-08-31T19:54:26.398Z,31.68
2018-08-31T19:57:29.179Z,31.76
2018-08-31T19:59:00.740Z,31.47
2018-08-31T20:00:32.424Z,31.32
2018-08-31T20:02:04.209Z,31.47
2018-08-31T20:03:35.485Z,31.47
2018-08-31T20:05:07.073Z,31.69
2018-08-31T20:06:38.749Z,31.53
2018-08-31T20:08:10.433Z,31.20
2018-08-31T20:09:42.014Z,31.14
2018-08-31T20:12:45.126Z,31.12
2018-08-31T20:14:16.556Z,31.28
2018-08-31T20:15:48.343Z,30.62
2018-08-31T20:17:19.719Z,30.51
2018-08-31T20:18:52.094Z,30.24
2018-08-31T20:20:22.882Z,30.07
2018-08-31T20:21:54.463Z,30.10
2018-08-31T20:23:26.348Z,30.34
2018-08-31T20:26:29.610Z,30.46
2018-08-31T20:28:00.788Z,30.54
2018-08-31T20:29:32.569Z,30.23
2018-08-31T20:31:03.993Z,30.15
2018-08-31T20:32:36.877Z,29.61
2018-08-31T20:34:07.110Z,29.15
2018-08-31T20:35:38.689Z,28.70
2018-08-31T20:37:10.472Z,28.43
2018-08-31T20:38:42.372Z,28.30
2018-08-31T20:40:13.431Z,28.19
2018-08-31T20:41:45.011Z,28.02
2018-08-31T20:43:16.652Z,27.75
2018-08-31T20:44:48.473Z,27.62
2018-08-31T20:46:19.751Z,27.37
2018-08-31T20:47:51.330Z,27.17
2018-08-31T20:49:22.909Z,27.06
2018-08-31T20:50:55.133Z,26.76
2018-08-31T20:52:26.069Z,26.51
2018-08-31T20:53:57.649Z,26.21
2018-08-31T20:55:29.231Z,26.36
2018-08-31T20:57:01.109Z,26.21
2018-08-31T20:58:32.387Z,25.80
2018-08-31T21:00:04.171Z,25.45
2018-08-31T21:01:35.545Z,25.15
2018-08-31T21:03:07.224Z,25.09
2018-08-31T21:04:38.761Z,24.78
2018-08-31T21:06:10.281Z,24.68
2018-08-31T21:07:42.402Z,24.49
2018-08-31T21:09:13.594Z,24.42
2018-08-31T21:10:45.017Z,24.27
2018-08-31T21:12:16.595Z,24.21
2018-08-31T21:13:48.173Z,24.06
2018-08-31T21:15:19.951Z,23.84
2018-08-31T21:16:51.329Z,23.87
2018-08-31T21:18:22.906Z,23.75
2018-08-31T21:19:54.484Z,23.63
2018-08-31T21:21:26.163Z,23.57
2018-08-31T21:22:57.640Z,23.54